sensor_id;sensor_type;location;lat;lon;timestamp;P1;durP1;ratioP1;P2;durP2;ratioP2
34505;SDS011;20748;42.632;23.198;2023-04-24T00:00:47;8.25;;;4.00;;
34505;SDS011;20748;42.632;23.198;2023-04-24T00:03:20;7.43;;;3.58;;
34505;SDS011;20748;42.632;23.198;2023-04-24T00:05:53;6.88;;;3.83;;
34505;SDS011;20748;42.632;23.198;2023-04-24T00:08:26;7.15;;;3.72;;
34505;SDS011;20748;42.632;23.198;2023-04-24T00:10:58;5.45;;;3.33;;
34505;SDS011;20748;42.632;23.198;2023-04-24T00:13:31;6.10;;;3.22;;
34505;SDS011;20748;42.632;23.198;2023-04-24T00:16:04;5.68;;;3.20;;
34505;SDS011;20748;42.632;23.198;2023-04-24T00:18:37;4.93;;;3.00;;
34505;SDS011;20748;42.632;23.198;2023-04-24T00:21:09;5.82;;;3.25;;
34505;SDS011;20748;42.632;23.198;2023-04-24T00:23:41;4.88;;;3.08;;
34505;SDS011;20748;42.632;23.198;2023-04-24T00:26:13;5.82;;;3.70;;
34505;SDS011;20748;42.632;23.198;2023-04-24T00:28:47;5.00;;;3.42;;
34505;SDS011;20748;42.632;23.198;2023-04-24T00:31:19;7.22;;;2.97;;
34505;SDS011;20748;42.632;23.198;2023-04-24T00:33:51;6.72;;;3.78;;
34505;SDS011;20748;42.632;23.198;2023-04-24T00:36:24;6.45;;;2.88;;
34505;SDS011;20748;42.632;23.198;2023-04-24T00:38:56;4.35;;;2.92;;
34505;SDS011;20748;42.632;23.198;2023-04-24T00:41:28;5.88;;;3.40;;
34505;SDS011;20748;42.632;23.198;2023-04-24T00:44:02;6.32;;;3.92;;
34505;SDS011;20748;42.632;23.198;2023-04-24T00:46:34;5.63;;;3.40;;
34505;SDS011;20748;42.632;23.198;2023-04-24T00:49:08;6.18;;;3.90;;
34505;SDS011;20748;42.632;23.198;2023-04-24T00:51:40;5.70;;;2.92;;
34505;SDS011;20748;42.632;23.198;2023-04-24T00:54:17;5.32;;;3.25;;
34505;SDS011;20748;42.632;23.198;2023-04-24T00:56:49;6.43;;;3.30;;
34505;SDS011;20748;42.632;23.198;2023-04-24T00:59:23;6.43;;;3.15;;
34505;SDS011;20748;42.632;23.198;2023-04-24T01:01:55;6.03;;;3.35;;
34505;SDS011;20748;42.632;23.198;2023-04-24T01:04:29;5.68;;;4.07;;
34505;SDS011;20748;42.632;23.198;2023-04-24T01:07:01;5.95;;;3.08;;
34505;SDS011;20748;42.632;23.198;2023-04-24T01:09:34;5.88;;;3.35;;
34505;SDS011;20748;42.632;23.198;2023-04-24T01:12:07;5.10;;;3.67;;
34505;SDS011;20748;42.632;23.198;2023-04-24T01:14:42;5.00;;;3.03;;
34505;SDS011;20748;42.632;23.198;2023-04-24T01:17:15;5.47;;;3.55;;
34505;SDS011;20748;42.632;23.198;2023-04-24T01:19:47;6.93;;;4.13;;
34505;SDS011;20748;42.632;23.198;2023-04-24T01:22:20;4.70;;;3.10;;
34505;SDS011;20748;42.632;23.198;2023-04-24T01:24:53;6.68;;;3.55;;
34505;SDS011;20748;42.632;23.198;2023-04-24T01:27:25;7.57;;;3.88;;
34505;SDS011;20748;42.632;23.198;2023-04-24T01:29:58;6.30;;;3.63;;
34505;SDS011;20748;42.632;23.198;2023-04-24T01:32:30;5.30;;;3.30;;
34505;SDS011;20748;42.632;23.198;2023-04-24T01:35:03;4.68;;;2.97;;
34505;SDS011;20748;42.632;23.198;2023-04-24T01:37:37;6.40;;;3.67;;
34505;SDS011;20748;42.632;23.198;2023-04-24T01:40:09;5.93;;;3.78;;
34505;SDS011;20748;42.632;23.198;2023-04-24T01:42:42;5.80;;;3.97;;
34505;SDS011;20748;42.632;23.198;2023-04-24T01:45:14;5.55;;;3.45;;
34505;SDS011;20748;42.632;23.198;2023-04-24T01:47:47;8.20;;;3.95;;
34505;SDS011;20748;42.632;23.198;2023-04-24T01:50:21;6.07;;;3.80;;
34505;SDS011;20748;42.632;23.198;2023-04-24T01:52:54;6.88;;;3.53;;
34505;SDS011;20748;42.632;23.198;2023-04-24T01:55:27;5.13;;;3.17;;
34505;SDS011;20748;42.632;23.198;2023-04-24T01:57:59;9.25;;;3.53;;
34505;SDS011;20748;42.632;23.198;2023-04-24T02:00:33;7.97;;;4.18;;
34505;SDS011;20748;42.632;23.198;2023-04-24T02:03:06;7.93;;;4.88;;
34505;SDS011;20748;42.632;23.198;2023-04-24T02:05:39;9.43;;;5.30;;
34505;SDS011;20748;42.632;23.198;2023-04-24T02:08:12;12.07;;;4.85;;
34505;SDS011;20748;42.632;23.198;2023-04-24T02:10:44;7.78;;;4.68;;
34505;SDS011;20748;42.632;23.198;2023-04-24T02:13:16;8.95;;;4.88;;
34505;SDS011;20748;42.632;23.198;2023-04-24T02:15:49;10.13;;;4.97;;
34505;SDS011;20748;42.632;23.198;2023-04-24T02:18:21;8.23;;;4.72;;
34505;SDS011;20748;42.632;23.198;2023-04-24T02:20:55;10.65;;;5.30;;
34505;SDS011;20748;42.632;23.198;2023-04-24T02:23:28;8.00;;;5.40;;
34505;SDS011;20748;42.632;23.198;2023-04-24T02:26:00;8.38;;;4.80;;
34505;SDS011;20748;42.632;23.198;2023-04-24T02:28:33;8.25;;;4.93;;
34505;SDS011;20748;42.632;23.198;2023-04-24T02:31:06;11.57;;;4.68;;
34505;SDS011;20748;42.632;23.198;2023-04-24T02:33:39;7.93;;;4.65;;
34505;SDS011;20748;42.632;23.198;2023-04-24T02:36:11;7.90;;;4.07;;
34505;SDS011;20748;42.632;23.198;2023-04-24T02:38:45;10.50;;;4.75;;
34505;SDS011;20748;42.632;23.198;2023-04-24T02:41:17;8.40;;;4.60;;
34505;SDS011;20748;42.632;23.198;2023-04-24T02:43:50;7.35;;;3.80;;
34505;SDS011;20748;42.632;23.198;2023-04-24T02:46:23;6.85;;;3.70;;
34505;SDS011;20748;42.632;23.198;2023-04-24T02:48:55;7.80;;;4.50;;
34505;SDS011;20748;42.632;23.198;2023-04-24T02:51:28;5.85;;;3.63;;
34505;SDS011;20748;42.632;23.198;2023-04-24T02:54:01;8.77;;;4.35;;
34505;SDS011;20748;42.632;23.198;2023-04-24T02:56:33;8.80;;;4.10;;
34505;SDS011;20748;42.632;23.198;2023-04-24T02:59:06;7.20;;;4.55;;
34505;SDS011;20748;42.632;23.198;2023-04-24T03:01:39;7.60;;;5.07;;
34505;SDS011;20748;42.632;23.198;2023-04-24T03:04:11;6.45;;;3.42;;
34505;SDS011;20748;42.632;23.198;2023-04-24T03:06:44;5.65;;;3.10;;
34505;SDS011;20748;42.632;23.198;2023-04-24T03:09:18;6.22;;;3.40;;
34505;SDS011;20748;42.632;23.198;2023-04-24T03:11:52;5.30;;;3.50;;
34505;SDS011;20748;42.632;23.198;2023-04-24T03:14:24;5.72;;;3.47;;
34505;SDS011;20748;42.632;23.198;2023-04-24T03:16:56;6.60;;;3.95;;
34505;SDS011;20748;42.632;23.198;2023-04-24T03:19:29;5.53;;;3.65;;
34505;SDS011;20748;42.632;23.198;2023-04-24T03:22:07;4.57;;;3.17;;
34505;SDS011;20748;42.632;23.198;2023-04-24T03:24:42;6.85;;;3.95;;
34505;SDS011;20748;42.632;23.198;2023-04-24T03:27:14;7.57;;;4.40;;
34505;SDS011;20748;42.632;23.198;2023-04-24T03:29:55;6.60;;;3.72;;
34505;SDS011;20748;42.632;23.198;2023-04-24T03:32:33;7.00;;;3.90;;
34505;SDS011;20748;42.632;23.198;2023-04-24T03:35:07;10.95;;;3.47;;
34505;SDS011;20748;42.632;23.198;2023-04-24T03:37:40;5.15;;;3.72;;
34505;SDS011;20748;42.632;23.198;2023-04-24T03:40:33;6.85;;;3.53;;
34505;SDS011;20748;42.632;23.198;2023-04-24T03:43:10;5.95;;;3.35;;
34505;SDS011;20748;42.632;23.198;2023-04-24T03:45:42;5.00;;;3.53;;
34505;SDS011;20748;42.632;23.198;2023-04-24T03:48:15;6.00;;;3.75;;
34505;SDS011;20748;42.632;23.198;2023-04-24T03:50:48;5.47;;;3.45;;
34505;SDS011;20748;42.632;23.198;2023-04-24T03:53:20;10.15;;;3.95;;
34505;SDS011;20748;42.632;23.198;2023-04-24T03:55:54;6.18;;;3.58;;
34505;SDS011;20748;42.632;23.198;2023-04-24T03:58:27;7.63;;;3.22;;
34505;SDS011;20748;42.632;23.198;2023-04-24T04:01:00;9.18;;;4.72;;
34505;SDS011;20748;42.632;23.198;2023-04-24T04:03:51;8.07;;;4.18;;
34505;SDS011;20748;42.632;23.198;2023-04-24T04:06:27;5.68;;;3.20;;
34505;SDS011;20748;42.632;23.198;2023-04-24T04:09:03;9.10;;;4.38;;
34505;SDS011;20748;42.632;23.198;2023-04-24T04:11:36;13.15;;;4.95;;
34505;SDS011;20748;42.632;23.198;2023-04-24T04:14:08;9.48;;;4.95;;
34505;SDS011;20748;42.632;23.198;2023-04-24T04:16:44;7.35;;;4.50;;
34505;SDS011;20748;42.632;23.198;2023-04-24T04:19:17;7.88;;;3.80;;
34505;SDS011;20748;42.632;23.198;2023-04-24T04:21:49;9.30;;;4.45;;
34505;SDS011;20748;42.632;23.198;2023-04-24T04:27:13;5.55;;;3.30;;
34505;SDS011;20748;42.632;23.198;2023-04-24T04:29:52;7.47;;;4.15;;
34505;SDS011;20748;42.632;23.198;2023-04-24T04:32:25;8.93;;;4.15;;
34505;SDS011;20748;42.632;23.198;2023-04-24T04:34:57;7.90;;;3.83;;
34505;SDS011;20748;42.632;23.198;2023-04-24T04:37:36;6.90;;;3.28;;
34505;SDS011;20748;42.632;23.198;2023-04-24T04:40:21;5.47;;;3.70;;
34505;SDS011;20748;42.632;23.198;2023-04-24T04:43:00;6.95;;;3.97;;
34505;SDS011;20748;42.632;23.198;2023-04-24T04:45:37;6.55;;;3.30;;
34505;SDS011;20748;42.632;23.198;2023-04-24T04:48:30;6.22;;;3.85;;
34505;SDS011;20748;42.632;23.198;2023-04-24T04:51:05;7.57;;;3.47;;
34505;SDS011;20748;42.632;23.198;2023-04-24T04:53:37;5.45;;;3.15;;
34505;SDS011;20748;42.632;23.198;2023-04-24T04:56:09;5.65;;;3.38;;
34505;SDS011;20748;42.632;23.198;2023-04-24T04:58:46;8.73;;;3.33;;
34505;SDS011;20748;42.632;23.198;2023-04-24T05:01:21;7.43;;;3.65;;
34505;SDS011;20748;42.632;23.198;2023-04-24T05:03:55;6.45;;;3.47;;
34505;SDS011;20748;42.632;23.198;2023-04-24T05:06:28;6.22;;;3.55;;
34505;SDS011;20748;42.632;23.198;2023-04-24T05:09:00;5.53;;;3.30;;
34505;SDS011;20748;42.632;23.198;2023-04-24T05:11:40;5.07;;;3.28;;
34505;SDS011;20748;42.632;23.198;2023-04-24T05:14:13;6.75;;;3.60;;
34505;SDS011;20748;42.632;23.198;2023-04-24T05:16:47;6.75;;;4.20;;
34505;SDS011;20748;42.632;23.198;2023-04-24T05:19:21;8.52;;;3.53;;
34505;SDS011;20748;42.632;23.198;2023-04-24T05:21:53;9.27;;;3.90;;
34505;SDS011;20748;42.632;23.198;2023-04-24T05:24:26;6.72;;;3.83;;
34505;SDS011;20748;42.632;23.198;2023-04-24T05:27:31;6.38;;;3.67;;
34505;SDS011;20748;42.632;23.198;2023-04-24T05:30:05;7.75;;;4.30;;
34505;SDS011;20748;42.632;23.198;2023-04-24T05:32:39;5.47;;;3.55;;
34505;SDS011;20748;42.632;23.198;2023-04-24T05:35:12;6.15;;;3.38;;
34505;SDS011;20748;42.632;23.198;2023-04-24T05:37:45;6.28;;;3.25;;
34505;SDS011;20748;42.632;23.198;2023-04-24T05:40:18;7.00;;;3.20;;
34505;SDS011;20748;42.632;23.198;2023-04-24T05:42:50;8.00;;;4.55;;
34505;SDS011;20748;42.632;23.198;2023-04-24T05:45:23;4.80;;;3.15;;
34505;SDS011;20748;42.632;23.198;2023-04-24T05:47:56;5.03;;;3.40;;
34505;SDS011;20748;42.632;23.198;2023-04-24T05:50:28;5.75;;;3.80;;
34505;SDS011;20748;42.632;23.198;2023-04-24T05:53:01;7.13;;;4.00;;
34505;SDS011;20748;42.632;23.198;2023-04-24T05:55:37;7.45;;;3.80;;
34505;SDS011;20748;42.632;23.198;2023-04-24T05:58:10;6.05;;;3.90;;
34505;SDS011;20748;42.632;23.198;2023-04-24T06:00:44;7.25;;;3.15;;
34505;SDS011;20748;42.632;23.198;2023-04-24T06:03:18;11.18;;;3.83;;
34505;SDS011;20748;42.632;23.198;2023-04-24T06:05:52;6.72;;;3.95;;
34505;SDS011;20748;42.632;23.198;2023-04-24T06:08:26;8.88;;;4.03;;
34505;SDS011;20748;42.632;23.198;2023-04-24T06:10:59;5.32;;;3.53;;
34505;SDS011;20748;42.632;23.198;2023-04-24T06:13:35;7.53;;;3.45;;
34505;SDS011;20748;42.632;23.198;2023-04-24T06:16:27;5.00;;;3.35;;
34505;SDS011;20748;42.632;23.198;2023-04-24T06:21:38;7.78;;;3.60;;
34505;SDS011;20748;42.632;23.198;2023-04-24T06:24:10;9.88;;;3.17;;
34505;SDS011;20748;42.632;23.198;2023-04-24T06:26:43;5.85;;;3.38;;
34505;SDS011;20748;42.632;23.198;2023-04-24T06:29:15;5.63;;;3.35;;
34505;SDS011;20748;42.632;23.198;2023-04-24T06:31:49;5.15;;;3.17;;
34505;SDS011;20748;42.632;23.198;2023-04-24T06:34:21;5.13;;;3.75;;
34505;SDS011;20748;42.632;23.198;2023-04-24T06:36:53;10.80;;;3.17;;
34505;SDS011;20748;42.632;23.198;2023-04-24T06:39:26;5.55;;;3.22;;
34505;SDS011;20748;42.632;23.198;2023-04-24T06:41:59;6.70;;;3.42;;
34505;SDS011;20748;42.632;23.198;2023-04-24T06:44:32;4.38;;;2.83;;
34505;SDS011;20748;42.632;23.198;2023-04-24T06:47:09;4.88;;;3.38;;
34505;SDS011;20748;42.632;23.198;2023-04-24T06:49:43;4.55;;;3.70;;
34505;SDS011;20748;42.632;23.198;2023-04-24T06:52:16;6.70;;;2.80;;
34505;SDS011;20748;42.632;23.198;2023-04-24T06:54:49;6.40;;;3.28;;
34505;SDS011;20748;42.632;23.198;2023-04-24T06:57:21;8.05;;;3.35;;
34505;SDS011;20748;42.632;23.198;2023-04-24T06:59:54;6.35;;;3.58;;
34505;SDS011;20748;42.632;23.198;2023-04-24T07:02:27;5.53;;;3.58;;
34505;SDS011;20748;42.632;23.198;2023-04-24T07:04:59;4.30;;;2.60;;
34505;SDS011;20748;42.632;23.198;2023-04-24T07:07:32;7.47;;;2.95;;
34505;SDS011;20748;42.632;23.198;2023-04-24T07:10:05;4.65;;;3.20;;
34505;SDS011;20748;42.632;23.198;2023-04-24T07:12:39;7.05;;;3.20;;
34505;SDS011;20748;42.632;23.198;2023-04-24T07:15:12;5.78;;;3.25;;
34505;SDS011;20748;42.632;23.198;2023-04-24T07:17:45;6.57;;;3.33;;
34505;SDS011;20748;42.632;23.198;2023-04-24T07:20:17;6.85;;;3.67;;
34505;SDS011;20748;42.632;23.198;2023-04-24T07:22:50;7.20;;;2.95;;
34505;SDS011;20748;42.632;23.198;2023-04-24T07:25:23;5.85;;;3.58;;
34505;SDS011;20748;42.632;23.198;2023-04-24T07:27:55;5.65;;;3.60;;
34505;SDS011;20748;42.632;23.198;2023-04-24T07:30:27;5.05;;;3.40;;
34505;SDS011;20748;42.632;23.198;2023-04-24T07:33:01;4.97;;;3.20;;
34505;SDS011;20748;42.632;23.198;2023-04-24T07:35:34;4.60;;;2.83;;
34505;SDS011;20748;42.632;23.198;2023-04-24T07:38:06;6.32;;;3.08;;
34505;SDS011;20748;42.632;23.198;2023-04-24T07:40:39;4.65;;;2.97;;
34505;SDS011;20748;42.632;23.198;2023-04-24T07:43:11;5.43;;;2.97;;
34505;SDS011;20748;42.632;23.198;2023-04-24T07:45:43;5.60;;;3.42;;
34505;SDS011;20748;42.632;23.198;2023-04-24T07:48:17;6.00;;;3.42;;
34505;SDS011;20748;42.632;23.198;2023-04-24T07:50:49;5.22;;;2.58;;
34505;SDS011;20748;42.632;23.198;2023-04-24T07:53:22;3.63;;;2.78;;
34505;SDS011;20748;42.632;23.198;2023-04-24T07:55:54;4.63;;;2.80;;
34505;SDS011;20748;42.632;23.198;2023-04-24T07:58:28;7.43;;;3.30;;
34505;SDS011;20748;42.632;23.198;2023-04-24T08:01:00;3.42;;;2.47;;
34505;SDS011;20748;42.632;23.198;2023-04-24T08:03:33;8.15;;;3.65;;
34505;SDS011;20748;42.632;23.198;2023-04-24T08:06:06;5.82;;;2.97;;
34505;SDS011;20748;42.632;23.198;2023-04-24T08:08:39;4.25;;;2.42;;
34505;SDS011;20748;42.632;23.198;2023-04-24T08:11:11;5.28;;;3.08;;
34505;SDS011;20748;42.632;23.198;2023-04-24T08:13:43;3.78;;;2.75;;
34505;SDS011;20748;42.632;23.198;2023-04-24T08:16:15;4.20;;;2.90;;
34505;SDS011;20748;42.632;23.198;2023-04-24T08:18:49;5.03;;;3.15;;
34505;SDS011;20748;42.632;23.198;2023-04-24T08:21:21;4.38;;;2.83;;
34505;SDS011;20748;42.632;23.198;2023-04-24T08:23:54;4.35;;;2.90;;
34505;SDS011;20748;42.632;23.198;2023-04-24T08:26:26;4.50;;;3.10;;
34505;SDS011;20748;42.632;23.198;2023-04-24T08:28:59;4.13;;;2.85;;
34505;SDS011;20748;42.632;23.198;2023-04-24T08:31:32;4.97;;;2.45;;
34505;SDS011;20748;42.632;23.198;2023-04-24T08:34:05;4.07;;;3.03;;
34505;SDS011;20748;42.632;23.198;2023-04-24T08:36:37;5.57;;;3.10;;
34505;SDS011;20748;42.632;23.198;2023-04-24T08:39:18;3.80;;;2.88;;
34505;SDS011;20748;42.632;23.198;2023-04-24T08:41:52;4.90;;;3.20;;
34505;SDS011;20748;42.632;23.198;2023-04-24T08:44:24;4.10;;;2.53;;
34505;SDS011;20748;42.632;23.198;2023-04-24T08:46:57;4.65;;;2.72;;
34505;SDS011;20748;42.632;23.198;2023-04-24T08:49:31;6.22;;;2.58;;
34505;SDS011;20748;42.632;23.198;2023-04-24T08:52:04;5.03;;;2.90;;
34505;SDS011;20748;42.632;23.198;2023-04-24T08:54:36;4.25;;;2.33;;
34505;SDS011;20748;42.632;23.198;2023-04-24T08:57:10;4.25;;;2.65;;
34505;SDS011;20748;42.632;23.198;2023-04-24T08:59:43;5.95;;;2.95;;
34505;SDS011;20748;42.632;23.198;2023-04-24T09:02:17;6.20;;;2.92;;
34505;SDS011;20748;42.632;23.198;2023-04-24T09:04:51;5.10;;;2.80;;
34505;SDS011;20748;42.632;23.198;2023-04-24T09:07:24;6.43;;;2.72;;
34505;SDS011;20748;42.632;23.198;2023-04-24T09:09:59;3.85;;;2.75;;
34505;SDS011;20748;42.632;23.198;2023-04-24T09:12:33;4.15;;;2.92;;
34505;SDS011;20748;42.632;23.198;2023-04-24T09:15:06;4.80;;;2.45;;
34505;SDS011;20748;42.632;23.198;2023-04-24T09:17:40;3.38;;;2.30;;
34505;SDS011;20748;42.632;23.198;2023-04-24T09:20:13;3.45;;;2.40;;
34505;SDS011;20748;42.632;23.198;2023-04-24T09:22:45;3.72;;;2.67;;
34505;SDS011;20748;42.632;23.198;2023-04-24T09:25:18;4.72;;;2.70;;
34505;SDS011;20748;42.632;23.198;2023-04-24T09:27:53;8.48;;;2.65;;
34505;SDS011;20748;42.632;23.198;2023-04-24T09:30:26;3.97;;;2.75;;
34505;SDS011;20748;42.632;23.198;2023-04-24T09:35:50;4.93;;;2.47;;
34505;SDS011;20748;42.632;23.198;2023-04-24T09:38:30;5.47;;;2.72;;
34505;SDS011;20748;42.632;23.198;2023-04-24T09:41:04;4.03;;;2.92;;
34505;SDS011;20748;42.632;23.198;2023-04-24T09:43:37;6.85;;;3.40;;
34505;SDS011;20748;42.632;23.198;2023-04-24T09:46:10;4.90;;;2.72;;
34505;SDS011;20748;42.632;23.198;2023-04-24T09:48:42;3.28;;;2.72;;
34505;SDS011;20748;42.632;23.198;2023-04-24T09:51:15;4.15;;;2.70;;
34505;SDS011;20748;42.632;23.198;2023-04-24T09:53:47;4.88;;;2.72;;
34505;SDS011;20748;42.632;23.198;2023-04-24T09:56:29;3.25;;;2.45;;
34505;SDS011;20748;42.632;23.198;2023-04-24T09:59:05;3.95;;;2.60;;
34505;SDS011;20748;42.632;23.198;2023-04-24T10:01:37;4.30;;;2.50;;
34505;SDS011;20748;42.632;23.198;2023-04-24T10:04:16;3.90;;;2.53;;
34505;SDS011;20748;42.632;23.198;2023-04-24T10:06:51;4.65;;;2.90;;
34505;SDS011;20748;42.632;23.198;2023-04-24T10:09:25;4.57;;;2.67;;
34505;SDS011;20748;42.632;23.198;2023-04-24T10:11:58;2.85;;;1.98;;
34505;SDS011;20748;42.632;23.198;2023-04-24T10:14:33;4.22;;;2.70;;
34505;SDS011;20748;42.632;23.198;2023-04-24T10:17:06;3.65;;;2.22;;
34505;SDS011;20748;42.632;23.198;2023-04-24T10:19:39;3.28;;;2.17;;
34505;SDS011;20748;42.632;23.198;2023-04-24T10:22:14;7.43;;;2.10;;
34505;SDS011;20748;42.632;23.198;2023-04-24T10:24:49;3.33;;;2.22;;
34505;SDS011;20748;42.632;23.198;2023-04-24T10:27:23;6.43;;;2.97;;
34505;SDS011;20748;42.632;23.198;2023-04-24T10:29:58;6.18;;;2.70;;
34505;SDS011;20748;42.632;23.198;2023-04-24T10:32:39;3.25;;;2.53;;
34505;SDS011;20748;42.632;23.198;2023-04-24T10:35:12;4.10;;;2.80;;
34505;SDS011;20748;42.632;23.198;2023-04-24T10:37:48;5.28;;;2.65;;
34505;SDS011;20748;42.632;23.198;2023-04-24T10:40:25;6.53;;;2.70;;
34505;SDS011;20748;42.632;23.198;2023-04-24T10:42:58;3.45;;;2.45;;
34505;SDS011;20748;42.632;23.198;2023-04-24T10:45:33;4.80;;;2.90;;
34505;SDS011;20748;42.632;23.198;2023-04-24T10:48:07;4.00;;;2.50;;
34505;SDS011;20748;42.632;23.198;2023-04-24T10:50:45;4.90;;;2.88;;
34505;SDS011;20748;42.632;23.198;2023-04-24T10:53:19;3.60;;;2.50;;
34505;SDS011;20748;42.632;23.198;2023-04-24T10:55:57;5.32;;;3.10;;
34505;SDS011;20748;42.632;23.198;2023-04-24T10:58:38;5.93;;;3.50;;
34505;SDS011;20748;42.632;23.198;2023-04-24T11:01:22;4.47;;;2.67;;
34505;SDS011;20748;42.632;23.198;2023-04-24T11:03:57;4.72;;;3.22;;
34505;SDS011;20748;42.632;23.198;2023-04-24T11:06:31;3.92;;;2.85;;
34505;SDS011;20748;42.632;23.198;2023-04-24T11:09:08;7.32;;;3.05;;
34505;SDS011;20748;42.632;23.198;2023-04-24T11:11:44;4.38;;;2.60;;
34505;SDS011;20748;42.632;23.198;2023-04-24T11:14:17;6.03;;;3.30;;
34505;SDS011;20748;42.632;23.198;2023-04-24T11:16:51;6.18;;;3.17;;
34505;SDS011;20748;42.632;23.198;2023-04-24T11:19:25;5.70;;;3.13;;
34505;SDS011;20748;42.632;23.198;2023-04-24T11:21:59;7.00;;;3.42;;
34505;SDS011;20748;42.632;23.198;2023-04-24T11:24:38;7.22;;;3.08;;
34505;SDS011;20748;42.632;23.198;2023-04-24T11:27:21;4.38;;;3.03;;
34505;SDS011;20748;42.632;23.198;2023-04-24T11:29:58;6.95;;;3.75;;
34505;SDS011;20748;42.632;23.198;2023-04-24T11:32:35;7.28;;;4.75;;
34505;SDS011;20748;42.632;23.198;2023-04-24T11:35:12;14.80;;;6.82;;
34505;SDS011;20748;42.632;23.198;2023-04-24T11:37:46;19.33;;;8.70;;
34505;SDS011;20748;42.632;23.198;2023-04-24T11:40:41;4.60;;;3.05;;
34505;SDS011;20748;42.632;23.198;2023-04-24T11:43:14;4.43;;;3.50;;
34505;SDS011;20748;42.632;23.198;2023-04-24T11:45:50;5.88;;;4.28;;
34505;SDS011;20748;42.632;23.198;2023-04-24T11:48:23;5.60;;;3.90;;
34505;SDS011;20748;42.632;23.198;2023-04-24T11:50:56;5.60;;;3.42;;
34505;SDS011;20748;42.632;23.198;2023-04-24T11:53:28;6.35;;;3.58;;
34505;SDS011;20748;42.632;23.198;2023-04-24T11:56:03;5.45;;;3.78;;
34505;SDS011;20748;42.632;23.198;2023-04-24T11:58:37;6.60;;;3.67;;
34505;SDS011;20748;42.632;23.198;2023-04-24T12:01:10;4.80;;;3.50;;
34505;SDS011;20748;42.632;23.198;2023-04-24T12:03:46;5.50;;;3.63;;
34505;SDS011;20748;42.632;23.198;2023-04-24T12:06:20;4.90;;;3.00;;
34505;SDS011;20748;42.632;23.198;2023-04-24T12:08:52;7.80;;;3.33;;
34505;SDS011;20748;42.632;23.198;2023-04-24T12:11:33;4.70;;;2.92;;
34505;SDS011;20748;42.632;23.198;2023-04-24T12:14:11;4.30;;;3.38;;
34505;SDS011;20748;42.632;23.198;2023-04-24T12:16:47;4.15;;;2.70;;
34505;SDS011;20748;42.632;23.198;2023-04-24T12:19:20;4.93;;;3.10;;
34505;SDS011;20748;42.632;23.198;2023-04-24T12:22:00;5.95;;;3.50;;
34505;SDS011;20748;42.632;23.198;2023-04-24T12:24:33;3.92;;;2.65;;
34505;SDS011;20748;42.632;23.198;2023-04-24T12:27:06;5.80;;;3.65;;
34505;SDS011;20748;42.632;23.198;2023-04-24T12:29:50;4.78;;;3.40;;
34505;SDS011;20748;42.632;23.198;2023-04-24T12:32:23;4.63;;;3.63;;
34505;SDS011;20748;42.632;23.198;2023-04-24T12:34:59;4.68;;;3.33;;
34505;SDS011;20748;42.632;23.198;2023-04-24T12:37:32;5.18;;;3.55;;
34505;SDS011;20748;42.632;23.198;2023-04-24T12:40:06;4.38;;;3.17;;
34505;SDS011;20748;42.632;23.198;2023-04-24T12:42:42;5.88;;;3.40;;
34505;SDS011;20748;42.632;23.198;2023-04-24T12:45:16;5.38;;;3.50;;
34505;SDS011;20748;42.632;23.198;2023-04-24T12:47:49;6.05;;;3.50;;
34505;SDS011;20748;42.632;23.198;2023-04-24T12:50:22;7.28;;;2.72;;
34505;SDS011;20748;42.632;23.198;2023-04-24T12:52:54;5.50;;;2.80;;
34505;SDS011;20748;42.632;23.198;2023-04-24T12:55:27;4.05;;;3.05;;
34505;SDS011;20748;42.632;23.198;2023-04-24T12:58:00;4.53;;;3.10;;
34505;SDS011;20748;42.632;23.198;2023-04-24T13:00:34;5.28;;;2.92;;
34505;SDS011;20748;42.632;23.198;2023-04-24T13:03:07;4.00;;;2.67;;
34505;SDS011;20748;42.632;23.198;2023-04-24T13:05:40;7.22;;;3.10;;
34505;SDS011;20748;42.632;23.198;2023-04-24T13:08:13;5.70;;;2.67;;
34505;SDS011;20748;42.632;23.198;2023-04-24T13:10:46;4.55;;;2.95;;
34505;SDS011;20748;42.632;23.198;2023-04-24T13:13:19;6.97;;;3.03;;
34505;SDS011;20748;42.632;23.198;2023-04-24T13:15:52;3.65;;;2.83;;
34505;SDS011;20748;42.632;23.198;2023-04-24T13:18:24;3.95;;;2.78;;
34505;SDS011;20748;42.632;23.198;2023-04-24T13:20:56;4.18;;;2.60;;
34505;SDS011;20748;42.632;23.198;2023-04-24T13:23:29;4.32;;;2.60;;
34505;SDS011;20748;42.632;23.198;2023-04-24T13:26:01;4.20;;;2.65;;
34505;SDS011;20748;42.632;23.198;2023-04-24T13:28:34;3.78;;;2.63;;
34505;SDS011;20748;42.632;23.198;2023-04-24T13:31:07;4.50;;;2.25;;
34505;SDS011;20748;42.632;23.198;2023-04-24T13:33:39;3.92;;;2.38;;
34505;SDS011;20748;42.632;23.198;2023-04-24T13:36:12;3.58;;;2.53;;
34505;SDS011;20748;42.632;23.198;2023-04-24T13:38:45;3.35;;;2.55;;
34505;SDS011;20748;42.632;23.198;2023-04-24T13:41:17;3.05;;;2.53;;
34505;SDS011;20748;42.632;23.198;2023-04-24T13:43:50;3.22;;;2.20;;
34505;SDS011;20748;42.632;23.198;2023-04-24T13:46:23;8.15;;;2.60;;
34505;SDS011;20748;42.632;23.198;2023-04-24T13:48:55;4.18;;;2.60;;
34505;SDS011;20748;42.632;23.198;2023-04-24T13:51:28;5.63;;;2.85;;
34505;SDS011;20748;42.632;23.198;2023-04-24T13:54:00;3.78;;;2.80;;
34505;SDS011;20748;42.632;23.198;2023-04-24T13:56:33;4.63;;;2.40;;
34505;SDS011;20748;42.632;23.198;2023-04-24T13:59:06;4.65;;;2.33;;
34505;SDS011;20748;42.632;23.198;2023-04-24T14:01:39;4.78;;;3.00;;
34505;SDS011;20748;42.632;23.198;2023-04-24T14:04:11;4.68;;;2.70;;
34505;SDS011;20748;42.632;23.198;2023-04-24T14:06:44;7.22;;;2.42;;
34505;SDS011;20748;42.632;23.198;2023-04-24T14:09:17;3.95;;;2.40;;
34505;SDS011;20748;42.632;23.198;2023-04-24T14:11:49;4.45;;;2.63;;
34505;SDS011;20748;42.632;23.198;2023-04-24T14:14:23;3.95;;;2.40;;
34505;SDS011;20748;42.632;23.198;2023-04-24T14:16:56;2.90;;;2.05;;
34505;SDS011;20748;42.632;23.198;2023-04-24T14:19:29;3.88;;;2.60;;
34505;SDS011;20748;42.632;23.198;2023-04-24T14:22:01;3.67;;;2.72;;
34505;SDS011;20748;42.632;23.198;2023-04-24T14:24:34;4.88;;;2.90;;
34505;SDS011;20748;42.632;23.198;2023-04-24T14:27:06;4.93;;;2.30;;
34505;SDS011;20748;42.632;23.198;2023-04-24T14:29:39;7.13;;;2.17;;
34505;SDS011;20748;42.632;23.198;2023-04-24T14:32:12;2.38;;;1.77;;
34505;SDS011;20748;42.632;23.198;2023-04-24T14:34:46;6.03;;;2.28;;
34505;SDS011;20748;42.632;23.198;2023-04-24T14:37:18;4.65;;;2.58;;
34505;SDS011;20748;42.632;23.198;2023-04-24T14:39:51;3.95;;;2.72;;
34505;SDS011;20748;42.632;23.198;2023-04-24T14:42:43;4.15;;;2.70;;
34505;SDS011;20748;42.632;23.198;2023-04-24T14:45:16;4.15;;;3.33;;
34505;SDS011;20748;42.632;23.198;2023-04-24T14:47:50;3.92;;;2.50;;
34505;SDS011;20748;42.632;23.198;2023-04-24T14:50:23;5.22;;;2.40;;
34505;SDS011;20748;42.632;23.198;2023-04-24T14:53:19;3.90;;;2.45;;
34505;SDS011;20748;42.632;23.198;2023-04-24T14:55:52;6.25;;;2.92;;
34505;SDS011;20748;42.632;23.198;2023-04-24T14:58:25;5.00;;;2.25;;
34505;SDS011;20748;42.632;23.198;2023-04-24T15:00:58;4.45;;;2.75;;
34505;SDS011;20748;42.632;23.198;2023-04-24T15:03:31;3.88;;;2.33;;
34505;SDS011;20748;42.632;23.198;2023-04-24T15:06:04;3.38;;;2.15;;
34505;SDS011;20748;42.632;23.198;2023-04-24T15:08:37;6.00;;;2.58;;
34505;SDS011;20748;42.632;23.198;2023-04-24T15:11:10;4.03;;;2.45;;
34505;SDS011;20748;42.632;23.198;2023-04-24T15:13:42;4.93;;;2.67;;
34505;SDS011;20748;42.632;23.198;2023-04-24T15:16:17;3.15;;;2.28;;
34505;SDS011;20748;42.632;23.198;2023-04-24T15:18:50;5.20;;;2.75;;
34505;SDS011;20748;42.632;23.198;2023-04-24T15:21:23;3.50;;;2.53;;